Bloomfield, Iowa
Current Conditions -  °F | °C
As of 6:53 PM on Monday 26 Jan 2015 (Local Time) from KOTM Reporting Station
Overcast Overcast  
Wind Chill: 36°   Ceiling: 5000
Heat Index: 41°   Visibility: 10mi
Dew Point: 37°   Wind: 7mph
Humidity: 86%   Direction: 330°NNW
Pressure: 29.88"   Gusts: NA
Location:  40.75°N, 92.41°W
Report Text: KOTM 270053Z AUTO 33006KT 10SM OVC050 05/03 A2988 RMK AO2 SLP125 T00500028
Loading
Personal Weather Stations






























Interactive Weather Map New forecast layout! Learn more

10-Day Weather Forecast

Advertisements
Track Severe Weather on mobile